sensor_id;sensor_type;location;lat;lon;timestamp;temperature;humidity
66740;DHT22;53653;52.188;8.602;2023-07-29T00:00:52;19.54;88.53
66740;DHT22;53653;52.188;8.602;2023-07-29T00:03:18;19.60;88.44
66740;DHT22;53653;52.188;8.602;2023-07-29T00:05:44;19.66;88.08
66740;DHT22;53653;52.188;8.602;2023-07-29T00:08:09;19.71;87.87
66740;DHT22;53653;52.188;8.602;2023-07-29T00:10:38;19.74;87.29
66740;DHT22;53653;52.188;8.602;2023-07-29T00:13:05;19.81;87.25
66740;DHT22;53653;52.188;8.602;2023-07-29T00:15:31;19.78;87.20
66740;DHT22;53653;52.188;8.602;2023-07-29T00:17:56;19.70;87.60
66740;DHT22;53653;52.188;8.602;2023-07-29T00:20:22;19.63;87.82
66740;DHT22;53653;52.188;8.602;2023-07-29T00:22:47;19.59;88.08
66740;DHT22;53653;52.188;8.602;2023-07-29T00:25:16;19.61;88.05
66740;DHT22;53653;52.188;8.602;2023-07-29T00:27:42;19.70;87.88
66740;DHT22;53653;52.188;8.602;2023-07-29T00:30:07;19.63;87.82
66740;DHT22;53653;52.188;8.602;2023-07-29T00:32:35;19.47;88.29
66740;DHT22;53653;52.188;8.602;2023-07-29T00:35:01;19.49;88.27
66740;DHT22;53653;52.188;8.602;2023-07-29T00:37:28;19.56;88.01
66740;DHT22;53653;52.188;8.602;2023-07-29T00:39:53;19.60;87.84
66740;DHT22;53653;52.188;8.602;2023-07-29T00:42:19;19.66;87.43
66740;DHT22;53653;52.188;8.602;2023-07-29T00:44:44;19.70;87.17
66740;DHT22;53653;52.188;8.602;2023-07-29T00:47:11;19.73;87.07
66740;DHT22;53653;52.188;8.602;2023-07-29T00:49:37;19.68;87.21
66740;DHT22;53653;52.188;8.602;2023-07-29T00:52:05;19.70;87.12
66740;DHT22;53653;52.188;8.602;2023-07-29T00:54:31;19.68;87.22
66740;DHT22;53653;52.188;8.602;2023-07-29T00:56:56;19.70;87.29
66740;DHT22;53653;52.188;8.602;2023-07-29T00:59:22;19.56;87.84
66740;DHT22;53653;52.188;8.602;2023-07-29T01:01:48;19.51;88.07
66740;DHT22;53653;52.188;8.602;2023-07-29T01:04:14;19.51;88.10
66740;DHT22;53653;52.188;8.602;2023-07-29T01:06:49;19.47;88.40
66740;DHT22;53653;52.188;8.602;2023-07-29T01:09:33;19.37;88.81
66740;DHT22;53653;52.188;8.602;2023-07-29T01:14:47;19.30;88.81
66740;DHT22;53653;52.188;8.602;2023-07-29T01:17:23;19.36;88.68
66740;DHT22;53653;52.188;8.602;2023-07-29T01:22:25;19.41;88.47
66740;DHT22;53653;52.188;8.602;2023-07-29T01:24:51;19.43;88.47
66740;DHT22;53653;52.188;8.602;2023-07-29T01:27:16;19.34;88.90
66740;DHT22;53653;52.188;8.602;2023-07-29T01:29:41;19.22;89.18
66740;DHT22;53653;52.188;8.602;2023-07-29T01:32:11;19.34;88.88
66740;DHT22;53653;52.188;8.602;2023-07-29T01:34:47;19.29;89.04
66740;DHT22;53653;52.188;8.602;2023-07-29T01:37:19;19.31;88.90
66740;DHT22;53653;52.188;8.602;2023-07-29T01:39:47;19.34;88.71
66740;DHT22;53653;52.188;8.602;2023-07-29T01:42:14;19.40;88.43
66740;DHT22;53653;52.188;8.602;2023-07-29T01:44:40;19.43;88.34
66740;DHT22;53653;52.188;8.602;2023-07-29T01:47:07;19.47;88.00
66740;DHT22;53653;52.188;8.602;2023-07-29T01:49:34;19.49;88.03
66740;DHT22;53653;52.188;8.602;2023-07-29T01:51:59;19.37;88.56
66740;DHT22;53653;52.188;8.602;2023-07-29T01:54:25;19.36;88.82
66740;DHT22;53653;52.188;8.602;2023-07-29T01:56:50;19.23;89.41
66740;DHT22;53653;52.188;8.602;2023-07-29T01:59:16;19.16;89.82
66740;DHT22;53653;52.188;8.602;2023-07-29T02:01:42;19.13;90.37
66740;DHT22;53653;52.188;8.602;2023-07-29T02:04:08;19.09;90.75
66740;DHT22;53653;52.188;8.602;2023-07-29T02:06:33;19.12;91.40
66740;DHT22;53653;52.188;8.602;2023-07-29T02:08:59;19.01;91.30
66740;DHT22;53653;52.188;8.602;2023-07-29T02:11:25;18.95;91.44
66740;DHT22;53653;52.188;8.602;2023-07-29T02:13:54;18.99;91.12
66740;DHT22;53653;52.188;8.602;2023-07-29T02:16:20;19.08;90.83
66740;DHT22;53653;52.188;8.602;2023-07-29T02:18:46;19.16;90.17
66740;DHT22;53653;52.188;8.602;2023-07-29T02:21:18;19.19;90.20
66740;DHT22;53653;52.188;8.602;2023-07-29T02:23:44;19.18;90.20
66740;DHT22;53653;52.188;8.602;2023-07-29T02:26:09;19.24;89.82
66740;DHT22;53653;52.188;8.602;2023-07-29T02:28:36;19.24;89.88
66740;DHT22;53653;52.188;8.602;2023-07-29T02:33:39;19.22;90.08
66740;DHT22;53653;52.188;8.602;2023-07-29T02:36:04;19.19;90.15
66740;DHT22;53653;52.188;8.602;2023-07-29T02:38:30;19.20;90.14
66740;DHT22;53653;52.188;8.602;2023-07-29T02:40:55;19.20;89.98
66740;DHT22;53653;52.188;8.602;2023-07-29T02:43:21;19.22;90.06
66740;DHT22;53653;52.188;8.602;2023-07-29T02:45:46;19.16;90.10
66740;DHT22;53653;52.188;8.602;2023-07-29T02:48:12;19.09;90.30
66740;DHT22;53653;52.188;8.602;2023-07-29T02:50:37;19.08;90.36
66740;DHT22;53653;52.188;8.602;2023-07-29T02:53:03;19.03;90.50
66740;DHT22;53653;52.188;8.602;2023-07-29T02:55:28;19.05;90.43
66740;DHT22;53653;52.188;8.602;2023-07-29T02:57:53;19.08;90.41
66740;DHT22;53653;52.188;8.602;2023-07-29T03:00:19;19.05;90.58
66740;DHT22;53653;52.188;8.602;2023-07-29T03:02:44;18.99;90.74
66740;DHT22;53653;52.188;8.602;2023-07-29T03:05:10;18.91;91.05
66740;DHT22;53653;52.188;8.602;2023-07-29T03:07:36;18.89;91.20
66740;DHT22;53653;52.188;8.602;2023-07-29T03:10:01;18.91;91.26
66740;DHT22;53653;52.188;8.602;2023-07-29T03:12:27;18.95;91.03
66740;DHT22;53653;52.188;8.602;2023-07-29T03:14:52;19.01;90.99
66740;DHT22;53653;52.188;8.602;2023-07-29T03:17:18;19.03;90.83
66740;DHT22;53653;52.188;8.602;2023-07-29T03:19:43;19.08;90.74
66740;DHT22;53653;52.188;8.602;2023-07-29T03:22:09;19.16;90.46
66740;DHT22;53653;52.188;8.602;2023-07-29T03:24:34;19.18;90.35
66740;DHT22;53653;52.188;8.602;2023-07-29T03:27:00;19.19;90.38
66740;DHT22;53653;52.188;8.602;2023-07-29T03:29:26;19.16;90.36
66740;DHT22;53653;52.188;8.602;2023-07-29T03:31:51;19.08;90.75
66740;DHT22;53653;52.188;8.602;2023-07-29T03:34:17;19.05;90.76
66740;DHT22;53653;52.188;8.602;2023-07-29T03:36:46;19.09;90.25
66740;DHT22;53653;52.188;8.602;2023-07-29T03:39:13;19.05;90.62
66740;DHT22;53653;52.188;8.602;2023-07-29T03:41:39;18.91;91.22
66740;DHT22;53653;52.188;8.602;2023-07-29T03:44:04;18.81;91.68
66740;DHT22;53653;52.188;8.602;2023-07-29T03:46:31;18.79;91.93
66740;DHT22;53653;52.188;8.602;2023-07-29T03:48:56;18.81;91.69
66740;DHT22;53653;52.188;8.602;2023-07-29T03:51:22;18.84;91.25
66740;DHT22;53653;52.188;8.602;2023-07-29T03:53:48;18.82;91.49
66740;DHT22;53653;52.188;8.602;2023-07-29T03:56:14;18.82;91.71
66740;DHT22;53653;52.188;8.602;2023-07-29T03:58:39;18.79;91.90
66740;DHT22;53653;52.188;8.602;2023-07-29T04:01:05;18.81;91.97
66740;DHT22;53653;52.188;8.602;2023-07-29T04:03:32;18.85;91.78
66740;DHT22;53653;52.188;8.602;2023-07-29T04:05:58;18.82;92.02
66740;DHT22;53653;52.188;8.602;2023-07-29T04:08:24;18.88;91.91
66740;DHT22;53653;52.188;8.602;2023-07-29T04:10:50;18.91;91.91
66740;DHT22;53653;52.188;8.602;2023-07-29T04:13:15;18.95;91.71
66740;DHT22;53653;52.188;8.602;2023-07-29T04:15:41;18.99;91.29
66740;DHT22;53653;52.188;8.602;2023-07-29T04:18:06;18.99;91.53
66740;DHT22;53653;52.188;8.602;2023-07-29T04:20:32;19.01;91.42
66740;DHT22;53653;52.188;8.602;2023-07-29T04:22:59;19.05;91.46
66740;DHT22;53653;52.188;8.602;2023-07-29T04:25:24;19.06;91.33
66740;DHT22;53653;52.188;8.602;2023-07-29T04:27:50;19.09;91.29
66740;DHT22;53653;52.188;8.602;2023-07-29T04:30:15;19.13;91.28
66740;DHT22;53653;52.188;8.602;2023-07-29T04:32:41;19.22;91.03
66740;DHT22;53653;52.188;8.602;2023-07-29T04:35:08;19.24;91.09
66740;DHT22;53653;52.188;8.602;2023-07-29T04:37:35;19.27;90.99
66740;DHT22;53653;52.188;8.602;2023-07-29T04:40:01;19.16;91.36
66740;DHT22;53653;52.188;8.602;2023-07-29T04:42:27;19.19;91.34
66740;DHT22;53653;52.188;8.602;2023-07-29T04:44:52;19.20;91.33
66740;DHT22;53653;52.188;8.602;2023-07-29T04:47:18;19.23;91.45
66740;DHT22;53653;52.188;8.602;2023-07-29T04:49:43;19.23;91.37
66740;DHT22;53653;52.188;8.602;2023-07-29T04:52:09;19.19;91.57
66740;DHT22;53653;52.188;8.602;2023-07-29T04:54:34;19.10;91.66
66740;DHT22;53653;52.188;8.602;2023-07-29T04:57:00;19.13;91.45
66740;DHT22;53653;52.188;8.602;2023-07-29T04:59:26;19.15;91.46
66740;DHT22;53653;52.188;8.602;2023-07-29T05:01:52;19.20;91.31
66740;DHT22;53653;52.188;8.602;2023-07-29T05:04:17;19.20;91.20
66740;DHT22;53653;52.188;8.602;2023-07-29T05:06:43;19.13;91.62
66740;DHT22;53653;52.188;8.602;2023-07-29T05:09:15;19.10;91.38
66740;DHT22;53653;52.188;8.602;2023-07-29T05:11:42;19.13;91.22
66740;DHT22;53653;52.188;8.602;2023-07-29T05:14:08;19.24;90.85
66740;DHT22;53653;52.188;8.602;2023-07-29T05:16:35;19.13;90.75
66740;DHT22;53653;52.188;8.602;2023-07-29T05:19:01;19.19;90.63
66740;DHT22;53653;52.188;8.602;2023-07-29T05:21:26;19.22;90.51
66740;DHT22;53653;52.188;8.602;2023-07-29T05:23:52;19.19;90.48
66740;DHT22;53653;52.188;8.602;2023-07-29T05:26:17;19.16;90.69
66740;DHT22;53653;52.188;8.602;2023-07-29T05:28:43;19.26;90.58
66740;DHT22;53653;52.188;8.602;2023-07-29T05:31:08;19.27;90.51
66740;DHT22;53653;52.188;8.602;2023-07-29T05:33:34;19.29;90.55
66740;DHT22;53653;52.188;8.602;2023-07-29T05:36:01;19.37;90.54
66740;DHT22;53653;52.188;8.602;2023-07-29T05:38:27;19.51;90.18
66740;DHT22;53653;52.188;8.602;2023-07-29T05:40:52;19.54;89.98
66740;DHT22;53653;52.188;8.602;2023-07-29T05:43:18;19.60;89.97
66740;DHT22;53653;52.188;8.602;2023-07-29T05:45:43;19.59;90.06
66740;DHT22;53653;52.188;8.602;2023-07-29T05:48:09;19.64;89.99
66740;DHT22;53653;52.188;8.602;2023-07-29T05:50:35;19.71;90.02
66740;DHT22;53653;52.188;8.602;2023-07-29T05:53:00;19.73;91.07
66740;DHT22;53653;52.188;8.602;2023-07-29T05:55:25;19.71;90.56
66740;DHT22;53653;52.188;8.602;2023-07-29T05:57:51;19.78;90.63
66740;DHT22;53653;52.188;8.602;2023-07-29T06:00:17;19.74;90.96
66740;DHT22;53653;52.188;8.602;2023-07-29T06:02:44;19.73;91.57
66740;DHT22;53653;52.188;8.602;2023-07-29T06:05:14;19.87;91.40
66740;DHT22;53653;52.188;8.602;2023-07-29T06:07:41;19.91;90.41
66740;DHT22;53653;52.188;8.602;2023-07-29T06:10:14;19.97;89.87
66740;DHT22;53653;52.188;8.602;2023-07-29T06:12:43;19.99;90.08
66740;DHT22;53653;52.188;8.602;2023-07-29T06:15:08;20.12;89.54
66740;DHT22;53653;52.188;8.602;2023-07-29T06:17:34;20.12;89.30
66740;DHT22;53653;52.188;8.602;2023-07-29T06:20:00;20.12;89.76
66740;DHT22;53653;52.188;8.602;2023-07-29T06:22:26;20.22;89.28
66740;DHT22;53653;52.188;8.602;2023-07-29T06:24:51;20.12;88.85
66740;DHT22;53653;52.188;8.602;2023-07-29T06:27:17;20.01;89.48
66740;DHT22;53653;52.188;8.602;2023-07-29T06:29:42;19.95;89.87
66740;DHT22;53653;52.188;8.602;2023-07-29T06:32:08;19.95;89.83
66740;DHT22;53653;52.188;8.602;2023-07-29T06:34:33;19.97;89.83
66740;DHT22;53653;52.188;8.602;2023-07-29T06:36:58;20.01;89.55
66740;DHT22;53653;52.188;8.602;2023-07-29T06:39:24;20.19;88.95
66740;DHT22;53653;52.188;8.602;2023-07-29T06:41:49;20.29;88.71
66740;DHT22;53653;52.188;8.602;2023-07-29T06:44:17;20.49;88.39
66740;DHT22;53653;52.188;8.602;2023-07-29T06:46:42;20.66;87.36
66740;DHT22;53653;52.188;8.602;2023-07-29T06:49:08;20.72;87.05
66740;DHT22;53653;52.188;8.602;2023-07-29T06:51:33;20.65;87.50
66740;DHT22;53653;52.188;8.602;2023-07-29T06:54:01;20.66;87.52
66740;DHT22;53653;52.188;8.602;2023-07-29T06:56:27;20.81;86.88
66740;DHT22;53653;52.188;8.602;2023-07-29T06:58:52;20.87;86.19
66740;DHT22;53653;52.188;8.602;2023-07-29T07:01:18;20.87;86.31
66740;DHT22;53653;52.188;8.602;2023-07-29T07:03:43;20.97;85.95
66740;DHT22;53653;52.188;8.602;2023-07-29T07:06:09;20.87;86.14
66740;DHT22;53653;52.188;8.602;2023-07-29T07:08:34;20.83;86.45
66740;DHT22;53653;52.188;8.602;2023-07-29T07:11:00;20.88;86.14
66740;DHT22;53653;52.188;8.602;2023-07-29T07:13:25;20.91;85.92
66740;DHT22;53653;52.188;8.602;2023-07-29T07:15:54;20.87;86.03
66740;DHT22;53653;52.188;8.602;2023-07-29T07:18:19;20.91;86.10
66740;DHT22;53653;52.188;8.602;2023-07-29T07:20:50;20.91;85.89
66740;DHT22;53653;52.188;8.602;2023-07-29T07:23:17;20.91;86.18
66740;DHT22;53653;52.188;8.602;2023-07-29T07:25:42;20.91;85.77
66740;DHT22;53653;52.188;8.602;2023-07-29T07:28:08;20.81;85.93
66740;DHT22;53653;52.188;8.602;2023-07-29T07:30:34;20.57;87.57
66740;DHT22;53653;52.188;8.602;2023-07-29T07:33:00;20.40;88.68
66740;DHT22;53653;52.188;8.602;2023-07-29T07:35:26;20.37;88.37
66740;DHT22;53653;52.188;8.602;2023-07-29T07:37:52;20.47;88.49
66740;DHT22;53653;52.188;8.602;2023-07-29T07:40:17;20.59;88.42
66740;DHT22;53653;52.188;8.602;2023-07-29T07:42:43;20.72;87.61
66740;DHT22;53653;52.188;8.602;2023-07-29T07:45:09;20.66;87.17
66740;DHT22;53653;52.188;8.602;2023-07-29T07:47:34;20.59;87.62
66740;DHT22;53653;52.188;8.602;2023-07-29T07:50:00;20.73;87.16
66740;DHT22;53653;52.188;8.602;2023-07-29T07:52:25;21.04;86.34
66740;DHT22;53653;52.188;8.602;2023-07-29T07:54:54;21.65;84.30
66740;DHT22;53653;52.188;8.602;2023-07-29T07:57:23;22.03;83.40
66740;DHT22;53653;52.188;8.602;2023-07-29T07:59:48;21.97;82.85
66740;DHT22;53653;52.188;8.602;2023-07-29T08:02:14;21.99;83.58
66740;DHT22;53653;52.188;8.602;2023-07-29T08:04:39;21.90;80.69
66740;DHT22;53653;52.188;8.602;2023-07-29T08:07:05;22.07;80.76
66740;DHT22;53653;52.188;8.602;2023-07-29T08:09:30;21.94;79.36
66740;DHT22;53653;52.188;8.602;2023-07-29T08:11:56;22.14;79.72
66740;DHT22;53653;52.188;8.602;2023-07-29T08:14:21;22.16;79.19
66740;DHT22;53653;52.188;8.602;2023-07-29T08:16:47;21.99;78.87
66740;DHT22;53653;52.188;8.602;2023-07-29T08:19:12;22.04;79.39
66740;DHT22;53653;52.188;8.602;2023-07-29T08:21:38;21.92;78.03
66740;DHT22;53653;52.188;8.602;2023-07-29T08:24:03;21.69;77.65
66740;DHT22;53653;52.188;8.602;2023-07-29T08:26:29;21.56;78.14
66740;DHT22;53653;52.188;8.602;2023-07-29T08:28:55;21.43;77.99
66740;DHT22;53653;52.188;8.602;2023-07-29T08:31:20;21.39;78.21
66740;DHT22;53653;52.188;8.602;2023-07-29T08:33:46;21.48;78.70
66740;DHT22;53653;52.188;8.602;2023-07-29T08:36:11;21.59;76.76
66740;DHT22;53653;52.188;8.602;2023-07-29T08:38:37;21.72;76.43
66740;DHT22;53653;52.188;8.602;2023-07-29T08:44:25;22.21;74.15
66740;DHT22;53653;52.188;8.602;2023-07-29T08:46:52;22.21;74.16
66740;DHT22;53653;52.188;8.602;2023-07-29T08:49:19;22.34;73.44
66740;DHT22;53653;52.188;8.602;2023-07-29T08:51:49;22.30;73.05
66740;DHT22;53653;52.188;8.602;2023-07-29T08:54:15;22.01;72.37
66740;DHT22;53653;52.188;8.602;2023-07-29T08:56:41;22.06;69.46
66740;DHT22;53653;52.188;8.602;2023-07-29T08:59:11;21.90;68.64
66740;DHT22;53653;52.188;8.602;2023-07-29T09:01:41;21.96;69.52
66740;DHT22;53653;52.188;8.602;2023-07-29T09:04:07;22.06;69.19
66740;DHT22;53653;52.188;8.602;2023-07-29T09:06:33;22.27;67.12
66740;DHT22;53653;52.188;8.602;2023-07-29T09:09:01;22.40;66.36
66740;DHT22;53653;52.188;8.602;2023-07-29T09:11:28;22.64;66.26
66740;DHT22;53653;52.188;8.602;2023-07-29T09:13:54;23.03;64.29
66740;DHT22;53653;52.188;8.602;2023-07-29T09:16:20;22.94;63.68
66740;DHT22;53653;52.188;8.602;2023-07-29T09:18:50;23.00;62.43
66740;DHT22;53653;52.188;8.602;2023-07-29T09:21:17;23.28;62.03
66740;DHT22;53653;52.188;8.602;2023-07-29T09:23:44;23.50;61.91
66740;DHT22;53653;52.188;8.602;2023-07-29T09:26:10;24.08;60.62
66740;DHT22;53653;52.188;8.602;2023-07-29T09:28:38;24.33;60.16
66740;DHT22;53653;52.188;8.602;2023-07-29T09:31:04;24.53;59.52
66740;DHT22;53653;52.188;8.602;2023-07-29T09:33:33;24.32;57.56
66740;DHT22;53653;52.188;8.602;2023-07-29T09:36:00;23.91;58.82
66740;DHT22;53653;52.188;8.602;2023-07-29T09:38:27;23.73;60.36
66740;DHT22;53653;52.188;8.602;2023-07-29T09:40:56;24.00;58.73
66740;DHT22;53653;52.188;8.602;2023-07-29T09:43:31;23.91;59.53
66740;DHT22;53653;52.188;8.602;2023-07-29T09:46:01;24.11;60.59
66740;DHT22;53653;52.188;8.602;2023-07-29T09:48:27;24.33;59.34
66740;DHT22;53653;52.188;8.602;2023-07-29T09:50:54;24.60;58.04
66740;DHT22;53653;52.188;8.602;2023-07-29T09:53:20;24.71;57.19
66740;DHT22;53653;52.188;8.602;2023-07-29T09:55:47;24.50;58.50
66740;DHT22;53653;52.188;8.602;2023-07-29T09:58:19;24.55;58.45
66740;DHT22;53653;52.188;8.602;2023-07-29T10:00:51;24.52;58.21
66740;DHT22;53653;52.188;8.602;2023-07-29T10:03:19;24.49;58.04
66740;DHT22;53653;52.188;8.602;2023-07-29T10:05:46;24.33;58.03
66740;DHT22;53653;52.188;8.602;2023-07-29T10:08:12;24.55;58.01
66740;DHT22;53653;52.188;8.602;2023-07-29T10:10:40;24.83;57.02
66740;DHT22;53653;52.188;8.602;2023-07-29T10:13:07;24.84;58.20
66740;DHT22;53653;52.188;8.602;2023-07-29T10:15:33;24.69;58.30
66740;DHT22;53653;52.188;8.602;2023-07-29T10:17:59;24.95;58.32
66740;DHT22;53653;52.188;8.602;2023-07-29T10:20:24;24.37;58.20
66740;DHT22;53653;52.188;8.602;2023-07-29T10:22:51;24.84;57.18
66740;DHT22;53653;52.188;8.602;2023-07-29T10:25:22;25.29;56.72
66740;DHT22;53653;52.188;8.602;2023-07-29T10:27:55;24.97;57.31
66740;DHT22;53653;52.188;8.602;2023-07-29T10:30:22;24.46;58.65
66740;DHT22;53653;52.188;8.602;2023-07-29T10:32:49;24.39;59.81
66740;DHT22;53653;52.188;8.602;2023-07-29T10:35:16;24.88;58.45
66740;DHT22;53653;52.188;8.602;2023-07-29T10:37:42;24.94;56.37
66740;DHT22;53653;52.188;8.602;2023-07-29T10:40:09;24.57;57.33
66740;DHT22;53653;52.188;8.602;2023-07-29T10:42:36;24.30;58.18
66740;DHT22;53653;52.188;8.602;2023-07-29T10:45:18;24.83;57.85
66740;DHT22;53653;52.188;8.602;2023-07-29T10:47:44;25.45;57.37
66740;DHT22;53653;52.188;8.602;2023-07-29T10:50:21;25.10;55.31
66740;DHT22;53653;52.188;8.602;2023-07-29T10:52:51;24.80;56.34
66740;DHT22;53653;52.188;8.602;2023-07-29T10:55:24;24.73;57.41
66740;DHT22;53653;52.188;8.602;2023-07-29T10:57:50;24.53;56.84
66740;DHT22;53653;52.188;8.602;2023-07-29T11:00:18;24.80;56.74
66740;DHT22;53653;52.188;8.602;2023-07-29T11:02:56;24.69;56.41
66740;DHT22;53653;52.188;8.602;2023-07-29T11:05:24;24.33;57.21
66740;DHT22;53653;52.188;8.602;2023-07-29T11:07:49;24.66;55.08
66740;DHT22;53653;52.188;8.602;2023-07-29T11:10:15;24.42;56.48
66740;DHT22;53653;52.188;8.602;2023-07-29T11:12:51;24.67;55.81
66740;DHT22;53653;52.188;8.602;2023-07-29T11:15:19;24.71;56.37
66740;DHT22;53653;52.188;8.602;2023-07-29T11:17:50;24.64;56.07
66740;DHT22;53653;52.188;8.602;2023-07-29T11:20:17;24.55;56.72
66740;DHT22;53653;52.188;8.602;2023-07-29T11:22:43;24.50;56.88
66740;DHT22;53653;52.188;8.602;2023-07-29T11:25:10;24.40;57.58
66740;DHT22;53653;52.188;8.602;2023-07-29T11:27:37;24.12;57.26
66740;DHT22;53653;52.188;8.602;2023-07-29T11:30:08;24.01;57.50
66740;DHT22;53653;52.188;8.602;2023-07-29T11:32:34;24.77;56.37
66740;DHT22;53653;52.188;8.602;2023-07-29T11:35:08;25.24;55.03
66740;DHT22;53653;52.188;8.602;2023-07-29T11:37:36;25.69;53.61
66740;DHT22;53653;52.188;8.602;2023-07-29T11:40:03;25.08;54.36
66740;DHT22;53653;52.188;8.602;2023-07-29T11:42:31;25.17;55.45
66740;DHT22;53653;52.188;8.602;2023-07-29T11:44:57;25.59;54.47
66740;DHT22;53653;52.188;8.602;2023-07-29T11:47:24;26.03;54.86
66740;DHT22;53653;52.188;8.602;2023-07-29T11:49:49;25.72;53.88
66740;DHT22;53653;52.188;8.602;2023-07-29T11:52:15;25.62;54.38
66740;DHT22;53653;52.188;8.602;2023-07-29T11:54:45;25.43;55.12
66740;DHT22;53653;52.188;8.602;2023-07-29T11:57:10;25.18;54.51
66740;DHT22;53653;52.188;8.602;2023-07-29T11:59:37;25.18;54.56
66740;DHT22;53653;52.188;8.602;2023-07-29T12:02:19;25.24;54.70
66740;DHT22;53653;52.188;8.602;2023-07-29T12:04:46;25.35;54.46
66740;DHT22;53653;52.188;8.602;2023-07-29T12:07:13;25.04;55.35
66740;DHT22;53653;52.188;8.602;2023-07-29T12:09:41;25.19;55.06
66740;DHT22;53653;52.188;8.602;2023-07-29T12:12:07;25.68;54.21
66740;DHT22;53653;52.188;8.602;2023-07-29T12:14:34;25.92;53.49
66740;DHT22;53653;52.188;8.602;2023-07-29T12:17:01;25.85;53.18
66740;DHT22;53653;52.188;8.602;2023-07-29T12:19:33;26.20;52.63
66740;DHT22;53653;52.188;8.602;2023-07-29T12:22:03;26.21;52.04
66740;DHT22;53653;52.188;8.602;2023-07-29T12:24:30;26.12;52.10
66740;DHT22;53653;52.188;8.602;2023-07-29T12:26:57;25.82;52.71
66740;DHT22;53653;52.188;8.602;2023-07-29T12:29:22;25.58;53.57
66740;DHT22;53653;52.188;8.602;2023-07-29T12:31:49;25.15;54.63
66740;DHT22;53653;52.188;8.602;2023-07-29T12:34:21;25.10;55.20
66740;DHT22;53653;52.188;8.602;2023-07-29T12:36:50;25.11;54.98
66740;DHT22;53653;52.188;8.602;2023-07-29T12:39:20;25.17;55.44
66740;DHT22;53653;52.188;8.602;2023-07-29T12:41:51;25.01;55.84
66740;DHT22;53653;52.188;8.602;2023-07-29T12:44:17;25.01;56.27
66740;DHT22;53653;52.188;8.602;2023-07-29T12:46:43;24.98;56.63
66740;DHT22;53653;52.188;8.602;2023-07-29T12:49:09;25.08;56.90
66740;DHT22;53653;52.188;8.602;2023-07-29T12:51:35;25.15;56.06
66740;DHT22;53653;52.188;8.602;2023-07-29T12:54:02;25.00;56.24
66740;DHT22;53653;52.188;8.602;2023-07-29T12:56:28;25.41;55.49
66740;DHT22;53653;52.188;8.602;2023-07-29T12:58:55;25.45;54.99
66740;DHT22;53653;52.188;8.602;2023-07-29T13:01:20;25.39;55.65
66740;DHT22;53653;52.188;8.602;2023-07-29T13:03:47;25.32;55.99
66740;DHT22;53653;52.188;8.602;2023-07-29T13:06:12;25.22;56.18
66740;DHT22;53653;52.188;8.602;2023-07-29T13:08:38;25.07;56.09
66740;DHT22;53653;52.188;8.602;2023-07-29T13:11:04;24.79;57.03
66740;DHT22;53653;52.188;8.602;2023-07-29T13:13:30;25.21;56.54
66740;DHT22;53653;52.188;8.602;2023-07-29T13:15:57;25.24;54.98
66740;DHT22;53653;52.188;8.602;2023-07-29T13:18:22;25.17;55.55
66740;DHT22;53653;52.188;8.602;2023-07-29T13:20:48;25.22;56.26
66740;DHT22;53653;52.188;8.602;2023-07-29T13:23:13;25.29;55.79
66740;DHT22;53653;52.188;8.602;2023-07-29T13:25:39;25.27;55.83
66740;DHT22;53653;52.188;8.602;2023-07-29T13:28:04;25.27;55.93
66740;DHT22;53653;52.188;8.602;2023-07-29T13:30:30;25.50;55.94
66740;DHT22;53653;52.188;8.602;2023-07-29T13:32:56;25.45;55.94
66740;DHT22;53653;52.188;8.602;2023-07-29T13:35:21;25.35;56.48
66740;DHT22;53653;52.188;8.602;2023-07-29T13:37:47;25.17;55.59
66740;DHT22;53653;52.188;8.602;2023-07-29T13:40:12;25.12;56.29
66740;DHT22;53653;52.188;8.602;2023-07-29T13:42:38;25.10;56.28
66740;DHT22;53653;52.188;8.602;2023-07-29T13:45:04;25.01;56.77
66740;DHT22;53653;52.188;8.602;2023-07-29T13:47:30;24.92;57.89
66740;DHT22;53653;52.188;8.602;2023-07-29T13:49:55;24.86;57.47
66740;DHT22;53653;52.188;8.602;2023-07-29T13:52:21;24.81;57.37
66740;DHT22;53653;52.188;8.602;2023-07-29T13:54:46;24.91;57.83
66740;DHT22;53653;52.188;8.602;2023-07-29T13:57:12;24.88;57.55
66740;DHT22;53653;52.188;8.602;2023-07-29T13:59:37;25.00;58.24
66740;DHT22;53653;52.188;8.602;2023-07-29T14:02:06;25.00;57.32
66740;DHT22;53653;52.188;8.602;2023-07-29T14:04:32;25.07;56.26
66740;DHT22;53653;52.188;8.602;2023-07-29T14:06:58;25.06;56.70
66740;DHT22;53653;52.188;8.602;2023-07-29T14:09:25;24.98;55.56
66740;DHT22;53653;52.188;8.602;2023-07-29T14:11:50;25.11;55.53
66740;DHT22;53653;52.188;8.602;2023-07-29T14:14:16;25.10;56.13
66740;DHT22;53653;52.188;8.602;2023-07-29T14:16:41;25.41;56.39
66740;DHT22;53653;52.188;8.602;2023-07-29T14:19:07;25.66;55.30
66740;DHT22;53653;52.188;8.602;2023-07-29T14:21:33;25.77;55.73
66740;DHT22;53653;52.188;8.602;2023-07-29T14:23:58;25.79;54.46
66740;DHT22;53653;52.188;8.602;2023-07-29T14:26:24;25.80;54.44
66740;DHT22;53653;52.188;8.602;2023-07-29T14:28:51;25.70;53.97
66740;DHT22;53653;52.188;8.602;2023-07-29T14:31:16;25.73;53.67
66740;DHT22;53653;52.188;8.602;2023-07-29T14:33:43;25.52;54.19
66740;DHT22;53653;52.188;8.602;2023-07-29T14:36:09;25.32;55.17
66740;DHT22;53653;52.188;8.602;2023-07-29T14:38:35;25.31;54.68
66740;DHT22;53653;52.188;8.602;2023-07-29T14:41:01;25.14;55.56
66740;DHT22;53653;52.188;8.602;2023-07-29T14:43:26;24.91;56.27
66740;DHT22;53653;52.188;8.602;2023-07-29T14:45:52;24.69;57.04
66740;DHT22;53653;52.188;8.602;2023-07-29T14:48:17;24.44;57.79
66740;DHT22;53653;52.188;8.602;2023-07-29T14:50:43;24.37;57.83
66740;DHT22;53653;52.188;8.602;2023-07-29T14:53:09;24.43;58.33
66740;DHT22;53653;52.188;8.602;2023-07-29T14:55:36;24.32;58.45
66740;DHT22;53653;52.188;8.602;2023-07-29T14:58:02;24.36;58.83
66740;DHT22;53653;52.188;8.602;2023-07-29T15:00:27;24.25;58.39
66740;DHT22;53653;52.188;8.602;2023-07-29T15:02:53;24.18;59.29
66740;DHT22;53653;52.188;8.602;2023-07-29T15:05:18;24.01;59.67
66740;DHT22;53653;52.188;8.602;2023-07-29T15:07:44;23.86;60.46
66740;DHT22;53653;52.188;8.602;2023-07-29T15:10:09;23.77;60.50
66740;DHT22;53653;52.188;8.602;2023-07-29T15:12:35;23.68;60.95
66740;DHT22;53653;52.188;8.602;2023-07-29T15:15:01;23.64;61.39
66740;DHT22;53653;52.188;8.602;2023-07-29T15:17:26;23.65;61.69
66740;DHT22;53653;52.188;8.602;2023-07-29T15:19:52;23.73;61.85
66740;DHT22;53653;52.188;8.602;2023-07-29T15:22:18;23.71;62.65
66740;DHT22;53653;52.188;8.602;2023-07-29T15:24:43;23.91;63.36
66740;DHT22;53653;52.188;8.602;2023-07-29T15:27:09;24.16;63.99
66740;DHT22;53653;52.188;8.602;2023-07-29T15:29:35;24.09;65.59
66740;DHT22;53653;52.188;8.602;2023-07-29T15:32:01;23.77;64.79
66740;DHT22;53653;52.188;8.602;2023-07-29T15:34:26;23.51;66.11
66740;DHT22;53653;52.188;8.602;2023-07-29T15:36:53;22.76;69.05